createdAt,value
2022-09-01T00:00:01.381Z,17.10
2022-09-01T00:02:32.392Z,17.10
2022-09-01T00:05:00.032Z,17.10
2022-09-01T00:07:30.326Z,17.10
2022-09-01T00:10:00.944Z,17.10
2022-09-01T00:12:29.446Z,17.00
2022-09-01T00:14:57.080Z,17.00
2022-09-01T00:17:24.164Z,17.00
2022-09-01T00:19:51.173Z,17.00
2022-09-01T00:22:18.624Z,16.90
2022-09-01T00:24:45.529Z,16.90
2022-09-01T00:27:12.923Z,16.90
2022-09-01T00:29:43.945Z,16.80
2022-09-01T00:32:12.273Z,16.80
2022-09-01T00:34:39.841Z,16.70
2022-09-01T00:37:07.549Z,16.70
2022-09-01T00:39:34.631Z,16.60
2022-09-01T00:42:02.288Z,16.60
2022-09-01T00:44:31.379Z,16.50
2022-09-01T00:46:59.927Z,16.50
2022-09-01T00:49:37.029Z,16.40
2022-09-01T00:52:14.878Z,16.40
2022-09-01T00:54:45.663Z,16.30
2022-09-01T00:57:13.861Z,16.20
2022-09-01T00:59:47.727Z,16.20
2022-09-01T01:02:15.229Z,16.20
2022-09-01T01:04:43.640Z,16.20
2022-09-01T01:07:11.956Z,16.20
2022-09-01T01:09:43.884Z,16.20
2022-09-01T01:12:13.683Z,16.20
2022-09-01T01:14:41.740Z,16.10
2022-09-01T01:17:12.870Z,16.10
2022-09-01T01:20:04.157Z,16.10
2022-09-01T01:23:08.928Z,16.10
2022-09-01T01:25:44.992Z,16.10
2022-09-01T01:28:18.292Z,16.10
2022-09-01T01:30:53.993Z,16.10
2022-09-01T01:33:26.588Z,16.00
2022-09-01T01:35:57.496Z,16.00
2022-09-01T01:38:27.981Z,16.00
2022-09-01T01:40:56.345Z,15.90
2022-09-01T01:43:26.368Z,15.90
2022-09-01T01:45:56.680Z,15.90
2022-09-01T01:48:28.214Z,15.90
2022-09-01T01:50:58.558Z,15.90
2022-09-01T01:53:25.493Z,15.80
2022-09-01T01:55:53.284Z,15.90
2022-09-01T01:58:22.427Z,15.80
2022-09-01T02:00:52.327Z,15.80
2022-09-01T02:03:21.840Z,15.90
2022-09-01T02:05:53.303Z,15.80
2022-09-01T02:08:22.688Z,15.80
2022-09-01T02:10:53.344Z,15.80
2022-09-01T02:13:30.941Z,15.70
2022-09-01T02:16:03.892Z,15.70
2022-09-01T02:18:36.549Z,15.70
2022-09-01T02:21:12.732Z,15.70
2022-09-01T02:23:42.121Z,15.70
2022-09-01T02:26:18.161Z,15.60
2022-09-01T02:28:54.768Z,15.60
2022-09-01T02:31:28.070Z,15.60
2022-09-01T02:33:55.965Z,15.50
2022-09-01T02:36:32.691Z,15.50
2022-09-01T02:38:59.818Z,15.50
2022-09-01T02:41:31.851Z,15.50
2022-09-01T02:44:02.125Z,15.50
2022-09-01T02:46:30.404Z,15.40
2022-09-01T02:49:00.404Z,15.40
2022-09-01T02:51:27.320Z,15.40
2022-09-01T02:53:54.951Z,15.40
2022-09-01T02:56:25.583Z,15.30
2022-09-01T02:58:53.999Z,15.30
2022-09-01T03:01:29.606Z,15.30
2022-09-01T03:04:03.349Z,15.20
2022-09-01T03:06:34.405Z,15.20
2022-09-01T03:09:02.171Z,15.10
2022-09-01T03:11:31.782Z,15.10
2022-09-01T03:13:58.964Z,15.10
2022-09-01T03:16:25.824Z,15.00
2022-09-01T03:18:53.389Z,15.00
2022-09-01T03:21:21.957Z,15.00
2022-09-01T03:23:51.343Z,15.00
2022-09-01T03:26:21.057Z,15.00
2022-09-01T03:28:51.205Z,15.00
2022-09-01T03:31:19.509Z,15.00
2022-09-01T03:33:48.128Z,15.00
2022-09-01T03:36:22.100Z,15.00
2022-09-01T03:38:51.003Z,15.00
2022-09-01T03:41:22.638Z,15.00
2022-09-01T03:43:49.403Z,14.90
2022-09-01T03:46:24.262Z,14.90
2022-09-01T03:48:58.764Z,14.80
2022-09-01T03:51:28.290Z,14.70
2022-09-01T03:53:57.336Z,14.70
2022-09-01T03:56:28.918Z,14.70
2022-09-01T03:58:58.746Z,14.60
2022-09-01T04:01:28.052Z,14.60
2022-09-01T04:03:55.572Z,14.60
2022-09-01T04:06:30.970Z,14.60
2022-09-01T04:09:02.486Z,14.60
2022-09-01T04:11:32.257Z,14.60
2022-09-01T04:14:01.408Z,14.50
2022-09-01T04:16:50.351Z,14.50
2022-09-01T04:19:26.220Z,14.50
2022-09-01T04:21:57.576Z,14.50
2022-09-01T04:24:28.074Z,14.40
2022-09-01T04:26:58.522Z,14.40
2022-09-01T04:29:29.402Z,14.40
2022-09-01T04:32:09.781Z,14.40
2022-09-01T04:34:40.311Z,14.40
2022-09-01T04:37:15.017Z,14.40
2022-09-01T04:39:51.410Z,14.40
2022-09-01T04:42:23.416Z,14.50
2022-09-01T04:44:54.509Z,14.60
2022-09-01T04:47:35.478Z,14.60
2022-09-01T04:50:13.691Z,14.60
2022-09-01T04:52:44.852Z,14.70
2022-09-01T04:55:22.106Z,14.70
2022-09-01T04:57:49.985Z,14.70
2022-09-01T05:00:22.677Z,14.80
2022-09-01T05:03:03.398Z,14.80
2022-09-01T05:05:46.928Z,14.80
2022-09-01T05:08:23.156Z,14.90
2022-09-01T05:10:53.221Z,14.90
2022-09-01T05:13:32.848Z,14.90
2022-09-01T05:16:03.541Z,15.00
2022-09-01T05:18:30.704Z,15.10
2022-09-01T05:20:58.325Z,15.20
2022-09-01T05:23:26.757Z,15.20
2022-09-01T05:25:54.908Z,15.20
2022-09-01T05:28:25.307Z,15.30
2022-09-01T05:30:54.283Z,15.40
2022-09-01T05:33:22.447Z,15.50
2022-09-01T05:36:01.973Z,15.60
2022-09-01T05:38:30.806Z,15.60
2022-09-01T05:41:04.077Z,15.70
2022-09-01T05:43:32.538Z,15.70
2022-09-01T05:46:06.911Z,15.80
2022-09-01T05:48:39.759Z,15.80
2022-09-01T05:51:17.882Z,15.90
2022-09-01T05:53:58.766Z,16.10
2022-09-01T05:56:28.015Z,16.10
2022-09-01T06:01:46.866Z,16.20
2022-09-01T06:04:16.462Z,16.30
2022-09-01T06:07:05.776Z,16.40
2022-09-01T06:09:38.274Z,16.40
2022-09-01T06:12:06.740Z,16.50
2022-09-01T06:14:34.429Z,16.60
2022-09-01T06:17:03.090Z,16.70
2022-09-01T06:19:33.658Z,16.70
2022-09-01T06:22:04.959Z,16.80
2022-09-01T06:24:32.125Z,16.90
2022-09-01T06:26:59.697Z,17.00
2022-09-01T06:29:26.543Z,17.00
2022-09-01T06:31:53.424Z,17.10
2022-09-01T06:34:20.601Z,17.20
2022-09-01T06:36:51.650Z,17.20
2022-09-01T06:39:21.018Z,17.20
2022-09-01T06:41:53.244Z,17.20
2022-09-01T06:44:24.560Z,17.40
2022-09-01T06:47:03.314Z,17.50
2022-09-01T06:49:33.171Z,17.70
2022-09-01T06:52:03.007Z,17.90
2022-09-01T06:54:35.483Z,18.10
2022-09-01T06:59:52.529Z,18.30
2022-09-01T07:02:22.498Z,18.40
2022-09-01T07:08:07.332Z,18.70
2022-09-01T07:12:08.864Z,18.90
2022-09-01T07:14:18.486Z,19.20
2022-09-01T07:16:51.929Z,19.30
2022-09-01T07:19:20.804Z,19.40
2022-09-01T07:22:35.875Z,19.50
2022-09-01T07:25:11.499Z,19.50
2022-09-01T07:27:40.595Z,19.60
2022-09-01T07:30:09.431Z,19.70
2022-09-01T07:32:43.558Z,19.80
2022-09-01T07:35:12.547Z,20.10
2022-09-01T07:43:45.052Z,20.80
2022-09-01T07:47:19.736Z,21.00
2022-09-01T07:50:11.949Z,21.10
2022-09-01T07:52:27.358Z,21.10
2022-09-01T07:54:57.342Z,21.20
2022-09-01T07:57:24.267Z,21.20
2022-09-01T07:59:53.864Z,21.40
2022-09-01T08:02:27.902Z,21.50
2022-09-01T08:04:55.682Z,21.70
2022-09-01T08:07:22.598Z,21.80
2022-09-01T08:09:49.493Z,21.60
2022-09-01T08:12:16.845Z,21.70
2022-09-01T08:15:12.657Z,21.80
2022-09-01T08:17:56.275Z,21.80
2022-09-01T08:20:25.459Z,21.80
2022-09-01T08:22:56.903Z,21.90
2022-09-01T08:25:26.757Z,22.00
2022-09-01T08:28:02.699Z,22.20
2022-09-01T08:30:32.574Z,22.40
2022-09-01T08:33:10.267Z,22.80
2022-09-01T08:35:43.726Z,23.20
2022-09-01T08:38:10.945Z,23.40
2022-09-01T08:40:38.446Z,23.70
2022-09-01T08:43:10.924Z,24.00
2022-09-01T08:45:49.208Z,24.20
2022-09-01T08:49:09.864Z,24.60
2022-09-01T08:51:40.552Z,24.40
2022-09-01T08:54:29.741Z,24.20
2022-09-01T08:57:11.017Z,24.30
2022-09-01T08:59:57.602Z,24.20
2022-09-01T09:02:38.863Z,23.90
2022-09-01T09:05:17.675Z,23.80
2022-09-01T09:07:53.539Z,24.30
2022-09-01T09:10:49.599Z,24.70
2022-09-01T09:13:32.539Z,25.00
2022-09-01T09:16:08.302Z,24.90
2022-09-01T09:18:56.778Z,24.80
2022-09-01T09:21:47.372Z,25.10
2022-09-01T09:24:52.852Z,25.70
2022-09-01T09:27:21.816Z,26.20
2022-09-01T09:29:51.765Z,26.50
2022-09-01T09:32:23.334Z,26.90
2022-09-01T09:34:55.099Z,27.50
2022-09-01T09:37:33.563Z,27.70
2022-09-01T09:40:16.021Z,27.40
2022-09-01T09:42:54.055Z,27.90
2022-09-01T09:45:37.958Z,28.30
2022-09-01T09:48:29.792Z,27.90
2022-09-01T09:51:14.836Z,28.20
2022-09-01T09:53:41.579Z,28.60
2022-09-01T09:56:24.657Z,29.60
2022-09-01T09:58:53.332Z,29.60
2022-09-01T10:01:24.507Z,29.20
2022-09-01T10:04:03.514Z,29.10
2022-09-01T10:06:45.875Z,28.70
2022-09-01T10:09:22.881Z,28.00
2022-09-01T10:11:52.706Z,27.80
2022-09-01T10:14:35.509Z,28.80
2022-09-01T10:17:17.206Z,29.50
2022-09-01T10:19:54.358Z,29.60
2022-09-01T10:22:23.547Z,30.40
2022-09-01T10:24:50.811Z,30.50
2022-09-01T10:27:26.499Z,30.70
2022-09-01T10:30:19.285Z,30.70
2022-09-01T10:32:58.145Z,29.60
2022-09-01T10:35:31.124Z,28.70
2022-09-01T10:38:00.430Z,28.40
2022-09-01T10:40:31.058Z,28.10
2022-09-01T10:43:37.913Z,28.30
2022-09-01T10:46:42.137Z,28.40
2022-09-01T10:49:24.864Z,29.80
2022-09-01T10:51:57.038Z,32.00
2022-09-01T10:54:50.440Z,34.30
2022-09-01T10:57:31.879Z,34.70
2022-09-01T11:00:36.268Z,33.00
2022-09-01T11:03:40.884Z,32.70
2022-09-01T11:06:13.351Z,32.00
2022-09-01T11:08:57.013Z,30.90
2022-09-01T11:11:46.033Z,29.90
2022-09-01T11:14:29.259Z,29.20
2022-09-01T11:17:14.735Z,29.30
2022-09-01T11:19:44.422Z,29.40
2022-09-01T11:22:15.692Z,29.20
2022-09-01T11:24:42.492Z,29.30
2022-09-01T11:27:11.970Z,29.80
2022-09-01T11:30:15.832Z,29.70
2022-09-01T11:32:47.033Z,30.40
2022-09-01T11:35:21.588Z,31.70
2022-09-01T11:37:50.426Z,33.80
2022-09-01T11:40:32.471Z,34.80
2022-09-01T11:43:04.433Z,34.60
2022-09-01T11:45:33.913Z,33.90
2022-09-01T11:48:06.174Z,33.10
2022-09-01T11:50:36.008Z,32.00
2022-09-01T11:53:12.152Z,31.70
2022-09-01T11:55:40.817Z,31.50
2022-09-01T11:58:17.149Z,32.50
2022-09-01T12:00:45.094Z,32.60
2022-09-01T12:03:24.869Z,32.60
2022-09-01T12:06:01.566Z,33.10
2022-09-01T12:08:32.550Z,33.30
2022-09-01T12:11:10.320Z,32.60
2022-09-01T12:13:38.858Z,33.40
2022-09-01T12:16:24.618Z,33.80
2022-09-01T12:18:53.564Z,33.90
2022-09-01T12:21:25.892Z,35.20
2022-09-01T12:23:53.062Z,36.30
2022-09-01T12:26:29.669Z,36.40
2022-09-01T12:28:57.271Z,36.30
2022-09-01T12:31:26.048Z,35.70
2022-09-01T12:33:56.110Z,36.40
2022-09-01T12:36:37.034Z,36.30
2022-09-01T12:39:22.619Z,35.80
2022-09-01T12:42:25.069Z,36.50
2022-09-01T12:44:58.520Z,37.30
2022-09-01T12:47:37.525Z,36.40
2022-09-01T12:50:07.462Z,34.30
2022-09-01T12:52:36.123Z,32.50
2022-09-01T12:55:03.475Z,31.20
2022-09-01T12:57:34.594Z,30.60
2022-09-01T13:00:23.988Z,31.60
2022-09-01T13:03:05.461Z,32.80
2022-09-01T13:05:42.409Z,34.30
2022-09-01T13:08:12.291Z,33.60
2022-09-01T13:10:43.446Z,33.00
2022-09-01T13:13:11.934Z,31.90
2022-09-01T13:15:42.996Z,31.20
2022-09-01T13:18:10.751Z,31.30
2022-09-01T13:20:38.280Z,32.40
2022-09-01T13:23:05.023Z,34.30
2022-09-01T13:25:31.748Z,35.80
2022-09-01T13:28:01.436Z,36.00
2022-09-01T13:30:29.891Z,35.00
2022-09-01T13:35:44.520Z,34.90
2022-09-01T13:38:11.769Z,34.50
2022-09-01T13:40:38.586Z,34.60
2022-09-01T13:43:06.138Z,33.90
2022-09-01T13:45:33.693Z,33.50
2022-09-01T13:48:16.850Z,32.50
2022-09-01T13:53:33.422Z,32.10
2022-09-01T13:56:00.319Z,32.70
2022-09-01T13:58:27.208Z,32.90
2022-09-01T14:00:54.144Z,34.00
2022-09-01T14:03:23.691Z,34.20
2022-09-01T14:05:51.055Z,34.70
2022-09-01T14:08:21.271Z,35.40
2022-09-01T14:10:51.297Z,35.40
2022-09-01T14:13:23.535Z,35.40
2022-09-01T14:15:53.245Z,35.50
2022-09-01T14:18:22.143Z,35.70
2022-09-01T14:20:51.718Z,36.80
2022-09-01T14:23:20.143Z,36.40
2022-09-01T14:25:51.340Z,36.80
2022-09-01T14:28:20.762Z,37.20
2022-09-01T14:30:49.323Z,37.20
2022-09-01T14:33:17.908Z,35.40
2022-09-01T14:35:48.014Z,33.90
2022-09-01T14:38:14.922Z,32.80
2022-09-01T14:40:43.326Z,31.90
2022-09-01T14:43:14.302Z,31.30
2022-09-01T14:45:48.296Z,30.60
2022-09-01T14:48:17.498Z,30.50
2022-09-01T14:50:48.756Z,31.10
2022-09-01T14:53:15.907Z,31.40
2022-09-01T14:55:44.065Z,30.70
2022-09-01T14:58:11.311Z,31.50
2022-09-01T15:00:41.960Z,32.00
2022-09-01T15:03:09.665Z,31.90
2022-09-01T15:05:39.736Z,31.30
2022-09-01T15:08:08.444Z,30.70
2022-09-01T15:10:36.439Z,30.20
2022-09-01T15:13:04.256Z,29.80
2022-09-01T15:15:31.557Z,29.50
2022-09-01T15:18:01.622Z,29.40
2022-09-01T15:20:48.815Z,29.50
2022-09-01T15:23:18.285Z,29.50
2022-09-01T15:25:45.169Z,29.50
2022-09-01T15:28:12.076Z,29.50
2022-09-01T15:30:39.580Z,29.30
2022-09-01T15:33:13.228Z,29.20
2022-09-01T15:35:42.626Z,29.20
2022-09-01T15:38:10.277Z,29.60
2022-09-01T15:40:43.904Z,29.60
2022-09-01T15:43:11.651Z,29.40
2022-09-01T15:45:39.170Z,29.40
2022-09-01T15:48:06.287Z,29.40
2022-09-01T15:50:33.122Z,29.60
2022-09-01T15:53:03.511Z,30.00
2022-09-01T15:55:38.371Z,30.30
2022-09-01T15:58:05.110Z,30.40
2022-09-01T16:00:32.701Z,30.20
2022-09-01T16:03:03.268Z,29.90
2022-09-01T16:05:31.566Z,29.70
2022-09-01T16:07:59.035Z,29.40
2022-09-01T16:10:25.902Z,29.90
2022-09-01T16:12:52.800Z,30.30
2022-09-01T16:15:22.226Z,30.80
2022-09-01T16:18:01.525Z,31.20
2022-09-01T16:20:54.116Z,31.70
2022-09-01T16:23:23.843Z,32.50
2022-09-01T16:25:59.747Z,32.20
2022-09-01T16:28:28.318Z,31.70
2022-09-01T16:31:15.174Z,31.20
2022-09-01T16:33:49.787Z,30.80
2022-09-01T16:36:40.888Z,30.50
2022-09-01T16:39:31.803Z,30.10
2022-09-01T16:42:04.245Z,29.60
2022-09-01T16:44:52.297Z,29.60
2022-09-01T16:47:36.215Z,29.60
2022-09-01T16:50:20.008Z,29.90
2022-09-01T16:53:02.738Z,30.00
2022-09-01T16:55:58.410Z,29.50
2022-09-01T16:58:56.188Z,28.90
2022-09-01T17:01:25.816Z,28.50
2022-09-01T17:04:01.845Z,28.00
2022-09-01T17:06:32.048Z,27.50
2022-09-01T17:09:03.533Z,27.20
2022-09-01T17:11:48.915Z,26.90
2022-09-01T17:14:39.875Z,27.10
2022-09-01T17:17:14.284Z,27.20
2022-09-01T17:19:41.411Z,26.90
2022-09-01T17:22:12.426Z,26.70
2022-09-01T17:24:42.851Z,26.50
2022-09-01T17:27:42.295Z,26.20
2022-09-01T17:30:09.395Z,26.10
2022-09-01T17:32:48.111Z,25.90
2022-09-01T17:35:40.188Z,25.70
2022-09-01T17:38:10.050Z,25.50
2022-09-01T17:40:54.344Z,25.30
2022-09-01T17:43:33.660Z,25.20
2022-09-01T17:46:16.183Z,25.00
2022-09-01T17:49:19.941Z,24.70
2022-09-01T17:52:09.593Z,24.60
2022-09-01T17:54:52.835Z,24.40
2022-09-01T17:57:19.548Z,24.20
2022-09-01T18:00:07.045Z,24.10
2022-09-01T18:03:10.499Z,23.90
2022-09-01T18:05:43.587Z,23.80
2022-09-01T18:08:10.344Z,23.60
2022-09-01T18:10:41.893Z,23.50
2022-09-01T18:13:51.796Z,23.40
2022-09-01T18:16:20.868Z,23.20
2022-09-01T18:18:49.435Z,23.00
2022-09-01T18:21:29.398Z,22.90
2022-09-01T18:24:12.962Z,22.80
2022-09-01T18:26:43.504Z,22.70
2022-09-01T18:29:10.546Z,22.70
2022-09-01T18:31:56.045Z,22.60
2022-09-01T18:34:48.605Z,22.60
2022-09-01T18:37:37.263Z,22.50
2022-09-01T18:40:23.627Z,22.40
2022-09-01T18:43:07.053Z,22.30
2022-09-01T18:45:55.785Z,22.20
2022-09-01T18:48:31.635Z,22.10
2022-09-01T18:51:21.665Z,22.00
2022-09-01T18:54:03.387Z,21.90
2022-09-01T18:56:51.803Z,21.80
2022-09-01T18:59:18.541Z,21.70
2022-09-01T19:02:03.490Z,21.60
2022-09-01T19:04:42.289Z,21.60
2022-09-01T19:07:49.857Z,21.50
2022-09-01T19:10:22.373Z,21.40
2022-09-01T19:12:51.771Z,21.40
2022-09-01T19:15:35.775Z,21.30
2022-09-01T19:18:16.418Z,21.20
2022-09-01T19:20:52.438Z,21.20
2022-09-01T19:23:46.286Z,21.10
2022-09-01T19:26:21.385Z,21.00
2022-09-01T19:29:16.770Z,20.90
2022-09-01T19:31:50.397Z,20.80
2022-09-01T19:34:39.368Z,20.80
2022-09-01T19:37:07.333Z,20.70
2022-09-01T19:39:42.403Z,20.60
2022-09-01T19:42:11.888Z,20.60
2022-09-01T19:44:50.734Z,20.50
2022-09-01T19:47:23.423Z,20.40
2022-09-01T19:50:09.084Z,20.30
2022-09-01T19:53:00.439Z,20.20
2022-09-01T19:55:31.091Z,20.10
2022-09-01T19:58:08.451Z,20.00
2022-09-01T20:00:51.462Z,19.90
2022-09-01T20:03:39.678Z,19.90
2022-09-01T20:09:28.608Z,19.70
2022-09-01T20:12:04.302Z,19.70
2022-09-01T20:14:43.289Z,19.70
2022-09-01T20:17:19.404Z,19.70
2022-09-01T20:19:55.204Z,19.70
2022-09-01T20:22:57.656Z,19.70
2022-09-01T20:25:29.448Z,19.70
2022-09-01T20:28:08.735Z,19.70
2022-09-01T20:30:44.691Z,19.80
2022-09-01T20:33:19.642Z,19.80
2022-09-01T20:35:54.711Z,19.80
2022-09-01T20:38:50.762Z,19.80
2022-09-01T20:41:45.154Z,19.70
2022-09-01T20:44:35.781Z,19.70
2022-09-01T20:47:06.714Z,19.70
2022-09-01T20:49:37.147Z,19.60
2022-09-01T20:52:16.131Z,19.60
2022-09-01T20:55:04.243Z,19.50
2022-09-01T20:57:59.010Z,19.50
2022-09-01T21:00:28.014Z,19.40
2022-09-01T21:03:11.977Z,19.40
2022-09-01T21:05:52.386Z,19.40
2022-09-01T21:08:41.376Z,19.50
2022-09-01T21:11:11.909Z,19.50
2022-09-01T21:14:03.827Z,19.50
2022-09-01T21:16:44.302Z,19.50
2022-09-01T21:19:20.236Z,19.40
2022-09-01T21:21:58.590Z,19.30
2022-09-01T21:24:25.436Z,19.20
2022-09-01T21:26:53.092Z,19.20
2022-09-01T21:29:46.855Z,19.20
2022-09-01T21:32:15.943Z,19.20
2022-09-01T21:34:44.756Z,19.20
2022-09-01T21:37:11.909Z,19.30
2022-09-01T21:39:38.758Z,19.30
2022-09-01T21:42:09.234Z,19.30
2022-09-01T21:44:36.991Z,19.30
2022-09-01T21:47:04.561Z,19.30
2022-09-01T21:49:33.242Z,19.20
2022-09-01T21:52:00.590Z,19.20
2022-09-01T21:54:27.390Z,19.20
2022-09-01T21:56:54.363Z,19.20
2022-09-01T21:59:21.108Z,19.20
2022-09-01T22:01:48.890Z,19.20
2022-09-01T22:04:18.249Z,19.20
2022-09-01T22:06:45.695Z,19.20
2022-09-01T22:09:20.548Z,19.10
2022-09-01T22:11:50.514Z,19.10
2022-09-01T22:14:19.154Z,19.10
2022-09-01T22:16:46.682Z,19.00
2022-09-01T22:19:13.748Z,19.00
2022-09-01T22:21:41.444Z,19.00
2022-09-01T22:24:08.528Z,18.90
2022-09-01T22:26:36.216Z,18.90
2022-09-01T22:29:05.712Z,18.80
2022-09-01T22:31:35.001Z,18.70
2022-09-01T22:34:01.825Z,18.60
2022-09-01T22:36:35.483Z,18.60
2022-09-01T22:39:03.372Z,18.60
2022-09-01T22:41:31.479Z,18.50
2022-09-01T22:44:00.032Z,18.50
2022-09-01T22:46:29.044Z,18.40
2022-09-01T22:48:57.358Z,18.40
2022-09-01T22:51:24.905Z,18.30
2022-09-01T22:53:54.017Z,18.30
2022-09-01T22:56:28.007Z,18.30
2022-09-01T22:58:58.638Z,18.20
2022-09-01T23:01:31.306Z,18.20
2022-09-01T23:04:01.850Z,18.10
2022-09-01T23:06:30.815Z,18.10
2022-09-01T23:08:59.174Z,18.10
2022-09-01T23:11:27.233Z,18.10
2022-09-01T23:13:54.833Z,18.00
2022-09-01T23:16:22.658Z,18.00
2022-09-01T23:18:51.165Z,18.00
2022-09-01T23:21:21.227Z,18.00
2022-09-01T23:23:48.287Z,18.00
2022-09-01T23:26:24.361Z,18.00
2022-09-01T23:28:51.352Z,18.00
2022-09-01T23:31:24.532Z,18.00
2022-09-01T23:33:51.942Z,18.00
2022-09-01T23:36:24.005Z,18.00
2022-09-01T23:38:52.071Z,18.00
2022-09-01T23:41:27.615Z,18.00
2022-09-01T23:43:55.192Z,18.10
2022-09-01T23:46:37.019Z,18.10
2022-09-01T23:49:04.475Z,18.10
2022-09-01T23:51:31.548Z,18.10
2022-09-01T23:53:59.193Z,18.20
2022-09-01T23:56:28.048Z,18.20
2022-09-01T23:58:55.346Z,18.20
